createdAt,value
2018-11-12T00:02:06.800Z,80.70
2018-11-12T00:04:35.074Z,80.50
2018-11-12T00:07:03.245Z,80.30
2018-11-12T00:09:31.427Z,80.40
2018-11-12T00:11:59.658Z,80.00
2018-11-12T00:14:27.825Z,80.80
2018-11-12T00:16:56.005Z,81.30
2018-11-12T00:19:24.231Z,81.90
2018-11-12T00:21:52.439Z,96.50
2018-11-12T00:24:20.623Z,82.30
2018-11-12T00:26:48.835Z,84.30
2018-11-12T00:29:17.058Z,83.60
2018-11-12T00:34:13.251Z,84.10
2018-11-12T00:36:41.467Z,82.90
2018-11-12T00:39:10.998Z,82.70
2018-11-12T00:41:39.514Z,82.90
2018-11-12T00:44:07.732Z,83.40
2018-11-12T00:46:35.870Z,83.80
2018-11-12T00:49:04.055Z,83.40
2018-11-12T00:51:32.233Z,82.60
2018-11-12T00:54:00.416Z,81.40
2018-11-12T00:56:28.638Z,80.80
2018-11-12T00:58:56.828Z,80.40
2018-11-12T01:01:25.091Z,80.20
2018-11-12T01:03:53.333Z,80.20
2018-11-12T01:06:21.461Z,80.30
2018-11-12T01:08:49.622Z,81.20
2018-11-12T01:11:17.792Z,81.90
2018-11-12T01:13:45.963Z,82.60
2018-11-12T01:16:14.180Z,82.10
2018-11-12T01:18:42.407Z,83.40
2018-11-12T01:21:10.650Z,84.80
2018-11-12T01:23:38.812Z,85.90
2018-11-12T01:26:06.987Z,86.30
2018-11-12T01:28:35.168Z,85.00
2018-11-12T01:31:05.248Z,84.50
2018-11-12T01:33:34.564Z,91.00
2018-11-12T01:36:02.820Z,84.50
2018-11-12T01:38:31.162Z,84.10
2018-11-12T01:40:59.338Z,83.10
2018-11-12T01:43:27.574Z,84.70
2018-11-12T01:45:55.755Z,86.30
2018-11-12T01:48:23.921Z,85.50
2018-11-12T01:50:52.151Z,84.10
2018-11-12T01:53:20.324Z,82.70
2018-11-12T01:55:48.490Z,81.60
2018-11-12T01:58:16.694Z,81.60
2018-11-12T02:00:44.863Z,81.00
2018-11-12T02:03:13.036Z,80.80
2018-11-12T02:05:41.296Z,81.40
2018-11-12T02:08:09.480Z,82.30
2018-11-12T02:10:37.746Z,83.00
2018-11-12T02:13:05.991Z,83.50
2018-11-12T02:15:34.159Z,82.90
2018-11-12T02:18:02.304Z,82.00
2018-11-12T02:20:30.548Z,81.10
2018-11-12T02:22:58.712Z,80.90
2018-11-12T02:25:26.908Z,80.80
2018-11-12T02:27:55.183Z,80.30
2018-11-12T02:30:28.844Z,81.30
2018-11-12T02:32:57.021Z,82.00
2018-11-12T02:35:25.149Z,90.50
2018-11-12T02:37:53.310Z,82.20
2018-11-12T02:40:21.608Z,81.80
2018-11-12T02:42:49.753Z,82.60
2018-11-12T02:45:17.949Z,83.40
2018-11-12T02:47:46.120Z,82.80
2018-11-12T02:50:15.696Z,83.50
2018-11-12T02:52:43.952Z,83.40
2018-11-12T02:55:13.263Z,83.50
2018-11-12T02:57:42.409Z,83.50
2018-11-12T03:00:14.476Z,82.80
2018-11-12T03:02:43.200Z,81.70
2018-11-12T03:05:12.004Z,80.40
2018-11-12T03:07:40.533Z,80.70
2018-11-12T03:10:14.581Z,81.10
2018-11-12T03:12:42.914Z,81.80
2018-11-12T03:15:12.171Z,81.30
2018-11-12T03:17:41.164Z,81.10
2018-11-12T03:20:11.424Z,81.00
2018-11-12T03:22:39.694Z,80.40
2018-11-12T03:25:09.140Z,79.90
2018-11-12T03:27:38.403Z,79.60
2018-11-12T03:30:07.846Z,79.80
2018-11-12T03:32:36.020Z,80.10
2018-11-12T03:35:04.295Z,80.50
2018-11-12T03:37:32.507Z,81.50
2018-11-12T03:42:28.626Z,97.00
2018-11-12T03:44:56.815Z,92.30
2018-11-12T03:47:25.013Z,82.30
2018-11-12T03:49:53.166Z,82.80
2018-11-12T03:52:21.556Z,82.10
2018-11-12T03:54:49.710Z,80.80
2018-11-12T03:57:17.876Z,80.20
2018-11-12T03:59:46.047Z,80.30
2018-11-12T04:02:14.285Z,80.70
2018-11-12T04:04:42.433Z,80.70
2018-11-12T04:07:10.611Z,81.90
2018-11-12T04:09:38.785Z,81.90
2018-11-12T04:12:07.037Z,81.50
2018-11-12T04:14:35.358Z,82.10
2018-11-12T04:17:03.599Z,82.10
2018-11-12T04:19:33.816Z,82.00
2018-11-12T04:22:02.787Z,81.40
2018-11-12T04:24:31.011Z,81.60
2018-11-12T04:26:59.247Z,80.70
2018-11-12T04:29:27.526Z,80.60
2018-11-12T04:31:55.797Z,81.80
2018-11-12T04:34:23.978Z,82.20
2018-11-12T04:36:52.257Z,83.00
2018-11-12T04:39:23.711Z,99.90
2018-11-12T04:41:51.973Z,95.30
2018-11-12T04:44:20.253Z,84.40
2018-11-12T04:49:22.347Z,92.80
2018-11-12T04:51:50.631Z,92.80
2018-11-12T04:54:18.904Z,87.20
2018-11-12T04:56:47.125Z,87.50
2018-11-12T04:59:15.331Z,86.80
2018-11-12T05:01:43.519Z,85.60
2018-11-12T05:04:15.795Z,83.70
2018-11-12T05:06:43.968Z,83.20
2018-11-12T05:09:12.249Z,83.40
2018-11-12T05:11:40.911Z,84.20
2018-11-12T05:14:09.099Z,84.40
2018-11-12T05:16:37.562Z,84.40
2018-11-12T05:19:05.979Z,84.30
2018-11-12T05:21:34.175Z,84.60
2018-11-12T05:24:02.334Z,85.20
2018-11-12T05:26:30.511Z,85.20
2018-11-12T05:28:58.751Z,85.00
2018-11-12T05:31:26.943Z,85.60
2018-11-12T05:33:55.153Z,84.90
2018-11-12T05:36:23.379Z,85.50
2018-11-12T05:38:51.588Z,85.10
2018-11-12T05:41:19.846Z,84.40
2018-11-12T05:43:48.075Z,99.90
2018-11-12T05:46:16.233Z,85.50
2018-11-12T05:48:44.410Z,88.30
2018-11-12T05:53:40.607Z,93.80
2018-11-12T05:56:08.797Z,89.00
2018-11-12T05:58:37.044Z,86.70
2018-11-12T06:01:05.358Z,87.30
2018-11-12T06:03:33.535Z,88.00
2018-11-12T06:06:01.733Z,88.30
2018-11-12T06:08:29.956Z,89.10
2018-11-12T06:10:58.135Z,86.60
2018-11-12T06:13:26.329Z,87.50
2018-11-12T06:15:54.599Z,89.10
2018-11-12T06:18:22.783Z,88.30
2018-11-12T06:20:50.976Z,88.70
2018-11-12T06:23:19.179Z,87.60
2018-11-12T06:25:47.375Z,87.30
2018-11-12T06:28:15.549Z,88.50
2018-11-12T06:30:43.871Z,89.20
2018-11-12T06:33:12.055Z,90.10
2018-11-12T06:35:40.227Z,90.00
2018-11-12T06:38:08.416Z,89.70
2018-11-12T06:40:36.603Z,93.70
2018-11-12T06:43:04.924Z,93.30
2018-11-12T06:45:33.090Z,82.60
2018-11-12T06:50:31.103Z,81.90
2018-11-12T06:52:59.965Z,91.00
2018-11-12T06:55:28.352Z,83.20
2018-11-12T06:57:56.779Z,83.60
2018-11-12T07:00:27.190Z,84.30
2018-11-12T07:02:55.596Z,84.80
2018-11-12T07:05:23.963Z,85.50
2018-11-12T07:07:52.262Z,86.50
2018-11-12T07:10:21.742Z,86.70
2018-11-12T07:12:50.835Z,87.00
2018-11-12T07:15:20.283Z,87.90
2018-11-12T07:17:48.489Z,87.50
2018-11-12T07:20:18.434Z,88.00
2018-11-12T07:22:46.696Z,88.00
2018-11-12T07:25:15.855Z,87.40
2018-11-12T07:27:44.135Z,88.00
2018-11-12T07:37:24.084Z,88.60
2018-11-12T07:39:52.489Z,90.30
2018-11-12T07:42:24.372Z,92.50
2018-11-12T07:44:52.541Z,91.60
2018-11-12T07:47:20.760Z,91.50
2018-11-12T07:49:48.968Z,91.20
2018-11-12T07:52:17.149Z,90.60
2018-11-12T07:54:45.415Z,91.50
2018-11-12T07:57:13.635Z,90.20
2018-11-12T07:59:41.807Z,88.40
2018-11-12T08:02:10.042Z,88.70
2018-11-12T08:04:38.595Z,86.90
2018-11-12T08:07:07.070Z,85.60
2018-11-12T08:09:35.329Z,83.50
2018-11-12T08:12:03.547Z,80.70
2018-11-12T08:14:31.937Z,79.70
2018-11-12T08:17:00.069Z,79.20
2018-11-12T08:19:28.279Z,79.10
2018-11-12T08:21:56.652Z,78.60
2018-11-12T08:24:24.873Z,77.90
2018-11-12T08:26:53.027Z,77.70
2018-11-12T08:29:21.307Z,77.80
2018-11-12T08:31:49.773Z,77.20
2018-11-12T08:34:17.987Z,76.10
2018-11-12T08:36:46.240Z,76.30
2018-11-12T08:39:14.441Z,75.70
2018-11-12T08:41:42.572Z,80.90
2018-11-12T08:44:10.743Z,94.20
2018-11-12T08:46:38.950Z,87.70
2018-11-12T08:49:07.509Z,73.30
2018-11-12T08:51:35.545Z,73.30
2018-11-12T08:54:03.736Z,72.80
2018-11-12T08:58:59.910Z,71.20
2018-11-12T09:01:28.043Z,71.80
2018-11-12T09:03:56.236Z,71.80
2018-11-12T09:06:24.409Z,70.80
2018-11-12T09:08:52.583Z,71.10
2018-11-12T09:11:20.754Z,69.20
2018-11-12T09:13:48.941Z,67.80
2018-11-12T09:16:17.210Z,67.40
2018-11-12T09:18:45.374Z,65.20
2018-11-12T09:21:13.560Z,58.60
2018-11-12T09:23:41.706Z,56.00
2018-11-12T09:26:09.857Z,55.80
2018-11-12T09:28:38.318Z,55.10
2018-11-12T09:31:07.525Z,53.20
2018-11-12T09:33:34.634Z,51.60
2018-11-12T09:36:02.774Z,49.50
2018-11-12T09:38:31.034Z,49.80
2018-11-12T09:40:59.149Z,49.80
2018-11-12T09:43:27.281Z,47.90
2018-11-12T09:45:55.414Z,46.90
2018-11-12T09:50:51.477Z,47.80
2018-11-12T09:53:19.617Z,48.20
2018-11-12T09:55:47.830Z,47.80
2018-11-12T09:58:15.979Z,48.10
2018-11-12T10:00:44.321Z,45.80
2018-11-12T10:03:13.119Z,45.20
2018-11-12T10:05:41.511Z,44.70
2018-11-12T10:08:13.716Z,45.50
2018-11-12T10:10:47.626Z,46.30
2018-11-12T10:13:19.511Z,46.00
2018-11-12T10:15:48.321Z,45.30
2018-11-12T10:20:40.784Z,41.60
2018-11-12T10:23:08.943Z,40.20
2018-11-12T10:25:37.085Z,40.50
2018-11-12T10:28:05.622Z,41.80
2018-11-12T10:30:33.909Z,44.90
2018-11-12T10:33:02.101Z,46.20
2018-11-12T10:35:30.269Z,45.80
2018-11-12T10:37:58.443Z,45.60
2018-11-12T10:40:26.922Z,45.70
2018-11-12T10:42:55.077Z,45.50
2018-11-12T10:45:23.222Z,46.50
2018-11-12T10:47:52.282Z,44.40
2018-11-12T10:50:20.874Z,43.40
2018-11-12T10:52:49.049Z,42.30
2018-11-12T10:55:18.518Z,44.00
2018-11-12T11:00:23.950Z,44.90
2018-11-12T11:02:58.155Z,45.40
2018-11-12T11:05:26.288Z,46.00
2018-11-12T11:07:54.798Z,44.60
2018-11-12T11:10:25.417Z,44.30
2018-11-12T11:12:53.985Z,43.80
2018-11-12T11:15:22.308Z,45.90
2018-11-12T11:17:50.394Z,43.30
2018-11-12T11:20:18.534Z,43.00
2018-11-12T11:22:46.693Z,43.00
2018-11-12T11:25:14.838Z,42.80
2018-11-12T11:27:43.006Z,43.40
2018-11-12T11:30:13.898Z,43.20
2018-11-12T11:32:42.242Z,43.10
2018-11-12T11:35:11.245Z,42.00
2018-11-12T11:37:39.422Z,41.30
2018-11-12T11:40:13.818Z,40.50
2018-11-12T11:42:42.113Z,41.80
2018-11-12T11:45:11.422Z,39.70
2018-11-12T11:47:40.224Z,41.60
2018-11-12T11:50:09.512Z,39.70
2018-11-12T11:52:37.638Z,40.20
2018-11-12T11:55:07.736Z,39.80
2018-11-12T11:57:36.026Z,39.00
2018-11-12T12:00:07.313Z,38.90
2018-11-12T12:02:35.474Z,40.00
2018-11-12T12:05:03.685Z,39.70
2018-11-12T12:07:31.838Z,39.30
2018-11-12T12:10:00.045Z,39.80
2018-11-12T12:12:28.349Z,39.70
2018-11-12T12:14:56.534Z,39.50
2018-11-12T12:17:24.670Z,40.40
2018-11-12T12:19:52.880Z,38.80
2018-11-12T12:22:21.007Z,38.30
2018-11-12T12:24:49.393Z,38.90
2018-11-12T12:27:17.477Z,37.80
2018-11-12T12:29:45.649Z,38.80
2018-11-12T12:32:13.799Z,39.10
2018-11-12T12:34:41.995Z,38.90
2018-11-12T12:37:10.123Z,39.10
2018-11-12T12:39:38.270Z,39.10
2018-11-12T12:42:06.441Z,39.40
2018-11-12T12:44:35.519Z,39.80
2018-11-12T12:47:04.375Z,39.10
2018-11-12T12:49:33.202Z,39.10
2018-11-12T12:52:01.353Z,40.00
2018-11-12T12:54:29.525Z,39.90
2018-11-12T12:56:57.678Z,39.30
2018-11-12T12:59:25.832Z,39.00
2018-11-12T13:01:54.086Z,39.40
2018-11-12T13:04:22.162Z,40.10
2018-11-12T13:06:50.321Z,38.10
2018-11-12T13:09:18.477Z,38.50
2018-11-12T13:11:46.630Z,39.10
2018-11-12T13:14:14.909Z,39.10
2018-11-12T13:16:42.986Z,39.20
2018-11-12T13:19:11.142Z,38.10
2018-11-12T13:21:39.310Z,37.40
2018-11-12T13:24:07.481Z,37.50
2018-11-12T13:26:35.643Z,37.50
2018-11-12T13:29:03.813Z,38.30
2018-11-12T13:31:32.047Z,38.90
2018-11-12T13:34:00.217Z,39.30
2018-11-12T13:36:28.454Z,42.60
2018-11-12T13:38:56.622Z,44.60
2018-11-12T13:41:24.818Z,44.50
2018-11-12T13:43:53.027Z,43.90
2018-11-12T13:46:21.225Z,42.30
2018-11-12T13:48:49.456Z,43.40
2018-11-12T13:51:17.601Z,41.10
2018-11-12T13:53:45.765Z,40.90
2018-11-12T13:56:13.954Z,41.40
2018-11-12T13:58:42.097Z,43.00
2018-11-12T14:01:10.267Z,46.00
2018-11-12T14:03:38.411Z,44.50
2018-11-12T14:06:06.587Z,49.00
2018-11-12T14:08:34.742Z,45.40
2018-11-12T14:11:02.892Z,45.20
2018-11-12T14:13:31.063Z,45.20
2018-11-12T14:15:59.214Z,44.70
2018-11-12T14:18:27.387Z,45.00
2018-11-12T14:20:55.590Z,45.30
2018-11-12T14:23:23.720Z,45.40
2018-11-12T14:25:51.897Z,45.90
2018-11-12T14:28:20.173Z,45.60
2018-11-12T14:30:48.311Z,45.90
2018-11-12T14:33:16.468Z,45.60
2018-11-12T14:35:44.616Z,45.20
2018-11-12T14:38:12.777Z,45.20
2018-11-12T14:40:40.943Z,45.50
2018-11-12T14:43:09.111Z,46.00
2018-11-12T14:45:37.297Z,46.80
2018-11-12T14:48:05.478Z,47.80
2018-11-12T14:50:33.632Z,48.60
2018-11-12T14:53:01.800Z,49.00
2018-11-12T14:55:30.047Z,49.30
2018-11-12T14:57:58.222Z,49.80
2018-11-12T15:00:27.022Z,54.00
2018-11-12T15:02:55.691Z,49.30
2018-11-12T15:05:24.863Z,49.60
2018-11-12T15:07:53.042Z,49.80
2018-11-12T15:10:21.207Z,50.40
2018-11-12T15:12:49.804Z,50.80
2018-11-12T15:15:17.976Z,51.20
2018-11-12T15:17:46.256Z,51.60
2018-11-12T15:20:18.640Z,51.80
2018-11-12T15:22:46.921Z,52.10
2018-11-12T15:25:16.650Z,52.30
2018-11-12T15:27:45.271Z,52.10
2018-11-12T15:30:15.668Z,52.10
2018-11-12T15:32:44.398Z,52.20
2018-11-12T15:35:12.981Z,52.50
2018-11-12T15:37:41.680Z,53.30
2018-11-12T15:40:10.288Z,54.30
2018-11-12T15:42:39.032Z,55.20
2018-11-12T15:45:09.153Z,55.60
2018-11-12T15:47:37.327Z,55.90
2018-11-12T15:50:09.654Z,56.90
2018-11-12T15:52:37.814Z,56.60
2018-11-12T15:55:06.560Z,56.50
2018-11-12T15:57:34.898Z,56.70
2018-11-12T16:00:02.916Z,57.30
2018-11-12T16:02:31.086Z,57.80
2018-11-12T16:04:59.253Z,58.40
2018-11-12T16:07:27.406Z,58.80
2018-11-12T16:09:55.551Z,58.50
2018-11-12T16:12:23.793Z,71.70
2018-11-12T16:14:51.941Z,67.10
2018-11-12T16:19:54.413Z,60.40
2018-11-12T16:22:22.631Z,61.30
2018-11-12T16:24:50.800Z,62.10
2018-11-12T16:27:18.960Z,62.70
2018-11-12T16:29:47.118Z,63.10
2018-11-12T16:32:15.272Z,63.90
2018-11-12T16:34:43.423Z,63.80
2018-11-12T16:37:11.580Z,65.60
2018-11-12T16:39:39.744Z,66.60
2018-11-12T16:42:07.893Z,67.00
2018-11-12T16:44:36.093Z,67.50
2018-11-12T16:47:04.240Z,67.70
2018-11-12T16:49:32.425Z,68.00
2018-11-12T16:52:00.589Z,68.10
2018-11-12T16:54:28.734Z,67.70
2018-11-12T16:56:56.889Z,67.90
2018-11-12T16:59:25.044Z,68.70
2018-11-12T17:01:53.190Z,68.20
2018-11-12T17:04:21.357Z,69.80
2018-11-12T17:06:49.520Z,71.10
2018-11-12T17:09:17.701Z,71.60
2018-11-12T17:11:45.881Z,73.00
2018-11-12T17:14:14.011Z,72.90
2018-11-12T17:21:38.030Z,73.10
2018-11-12T17:24:06.270Z,73.70
2018-11-12T17:26:34.419Z,74.20
2018-11-12T17:29:02.619Z,75.10
2018-11-12T17:31:30.764Z,75.30
2018-11-12T17:33:58.931Z,74.80
2018-11-12T17:36:27.169Z,75.40
2018-11-12T17:38:55.389Z,75.70
2018-11-12T17:41:23.651Z,76.00
2018-11-12T17:43:51.893Z,76.10
2018-11-12T17:46:20.133Z,75.90
2018-11-12T17:48:48.433Z,76.50
2018-11-12T17:51:16.705Z,76.50
2018-11-12T17:53:44.947Z,76.60
2018-11-12T17:56:13.100Z,76.30
2018-11-12T17:58:41.337Z,76.30
2018-11-12T18:01:09.525Z,76.40
2018-11-12T18:03:37.795Z,77.00
2018-11-12T18:06:06.521Z,76.40
2018-11-12T18:08:34.674Z,77.10
2018-11-12T18:11:02.874Z,80.40
2018-11-12T18:13:31.083Z,77.70
2018-11-12T18:15:59.215Z,76.90
2018-11-12T18:18:27.577Z,77.90
2018-11-12T18:23:23.762Z,77.70
2018-11-12T18:25:51.919Z,78.40
2018-11-12T18:28:20.095Z,78.90
2018-11-12T18:30:48.568Z,78.60
2018-11-12T18:33:16.409Z,78.40
2018-11-12T18:35:44.636Z,77.80
2018-11-12T18:38:12.871Z,77.60
2018-11-12T18:40:40.953Z,78.10
2018-11-12T18:43:09.121Z,77.90
2018-11-12T18:45:37.271Z,77.80
2018-11-12T18:48:05.451Z,78.10
2018-11-12T18:50:33.613Z,78.50
2018-11-12T18:53:01.770Z,78.40
2018-11-12T18:55:29.934Z,78.40
2018-11-12T18:57:59.924Z,78.70
2018-11-12T19:00:28.226Z,78.90
2018-11-12T19:02:56.764Z,79.00
2018-11-12T19:05:27.100Z,77.90
2018-11-12T19:07:56.585Z,77.40
2018-11-12T19:10:27.369Z,78.30
2018-11-12T19:12:55.630Z,79.20
2018-11-12T19:15:25.429Z,93.10
2018-11-12T19:17:58.963Z,86.80
2018-11-12T19:20:27.126Z,82.30
2018-11-12T19:25:23.732Z,88.60
2018-11-12T19:27:51.897Z,80.10
2018-11-12T19:30:21.526Z,81.20
2018-11-12T19:32:49.707Z,81.50
2018-11-12T19:35:19.157Z,81.10
2018-11-12T19:37:47.317Z,80.80
2018-11-12T19:40:16.772Z,80.90
2018-11-12T19:42:45.773Z,80.20
2018-11-12T19:45:14.251Z,80.10
2018-11-12T19:47:42.784Z,79.40
2018-11-12T19:50:13.169Z,78.10
2018-11-12T19:52:42.373Z,78.00
2018-11-12T19:55:10.541Z,78.30
2018-11-12T19:57:38.729Z,79.20
2018-11-12T20:00:11.667Z,81.30
2018-11-12T20:02:40.472Z,81.40
2018-11-12T20:05:08.877Z,82.40
2018-11-12T20:07:37.025Z,81.40
2018-11-12T20:10:07.451Z,79.80
2018-11-12T20:12:35.670Z,79.70
2018-11-12T20:15:03.960Z,79.90
2018-11-12T20:17:32.186Z,79.60
2018-11-12T20:20:00.334Z,79.30
2018-11-12T20:22:28.521Z,79.60
2018-11-12T20:24:57.048Z,78.80
2018-11-12T20:27:25.309Z,79.20
2018-11-12T20:29:53.471Z,82.00
2018-11-12T20:34:49.621Z,80.10
2018-11-12T20:37:17.798Z,81.90
2018-11-12T20:39:46.099Z,81.70
2018-11-12T20:42:14.279Z,83.10
2018-11-12T20:44:42.523Z,83.00
2018-11-12T20:47:10.703Z,82.50
2018-11-12T20:49:38.884Z,82.00
2018-11-12T20:52:07.174Z,81.40
2018-11-12T20:54:35.325Z,82.20
2018-11-12T20:57:03.587Z,80.40
2018-11-12T20:59:31.780Z,79.50
2018-11-12T21:02:00.043Z,79.00
2018-11-12T21:04:28.236Z,79.60
2018-11-12T21:06:56.513Z,80.00
2018-11-12T21:09:24.717Z,80.20
2018-11-12T21:11:52.934Z,81.00
2018-11-12T21:14:21.095Z,82.70
2018-11-12T21:16:49.268Z,82.00
2018-11-12T21:19:17.484Z,82.30
2018-11-12T21:21:45.630Z,81.20
2018-11-12T21:24:13.778Z,82.40
2018-11-12T21:26:41.944Z,81.80
2018-11-12T21:29:10.181Z,79.70
2018-11-12T21:31:38.271Z,80.30
2018-11-12T21:34:06.505Z,80.60
2018-11-12T21:36:34.673Z,80.60
2018-11-12T21:39:02.901Z,81.40
2018-11-12T21:41:31.056Z,80.70
2018-11-12T21:43:59.246Z,80.70
2018-11-12T21:46:27.395Z,90.70
2018-11-12T21:48:55.546Z,79.90
2018-11-12T21:53:51.686Z,80.10
2018-11-12T21:56:19.861Z,82.40
2018-11-12T21:58:48.324Z,81.70
2018-11-12T22:01:16.344Z,82.20
2018-11-12T22:03:44.591Z,82.30
2018-11-12T22:06:12.733Z,81.90
2018-11-12T22:08:40.942Z,80.80
2018-11-12T22:11:09.048Z,80.30
2018-11-12T22:13:37.207Z,80.50
2018-11-12T22:16:06.421Z,81.00
2018-11-12T22:18:34.619Z,81.60
2018-11-12T22:21:02.746Z,82.20
2018-11-12T22:23:30.894Z,81.80
2018-11-12T22:25:59.079Z,81.50
2018-11-12T22:28:27.218Z,81.90
2018-11-12T22:31:01.957Z,82.40
2018-11-12T22:33:30.130Z,81.60
2018-11-12T22:35:58.269Z,81.00
2018-11-12T22:41:01.007Z,82.00
2018-11-12T22:43:29.201Z,81.00
2018-11-12T22:45:57.494Z,90.70
2018-11-12T22:48:25.642Z,79.70
2018-11-12T22:58:17.655Z,79.20
2018-11-12T23:00:45.893Z,80.70
2018-11-12T23:03:14.041Z,81.30
2018-11-12T23:05:42.230Z,81.10
2018-11-12T23:08:10.410Z,81.10
2018-11-12T23:10:38.567Z,80.90
2018-11-12T23:13:06.713Z,81.30
2018-11-12T23:15:34.887Z,81.20
2018-11-12T23:18:03.186Z,81.60
2018-11-12T23:20:31.367Z,80.50
2018-11-12T23:22:59.508Z,79.00
2018-11-12T23:25:27.729Z,78.80
2018-11-12T23:27:55.862Z,78.60
2018-11-12T23:30:25.087Z,78.80
2018-11-12T23:32:53.234Z,80.40
2018-11-12T23:35:22.770Z,80.70
2018-11-12T23:37:51.236Z,80.80
2018-11-12T23:40:19.433Z,80.40
2018-11-12T23:42:48.005Z,79.80
2018-11-12T23:45:16.169Z,89.90
2018-11-12T23:47:44.319Z,90.10
2018-11-12T23:50:14.873Z,82.60
2018-11-12T23:52:43.767Z,79.10
